| time (UTC) | temp F | wind direction | speed MPH | gust MPH | rain 1hr in | rain 24hr in | rain mn in | humidity % | barometer mb |
| 20260905141005 | 88 | 90 | 15.0 | 17.0 | 0.00 | 0.00 | 0.00 | 6 | 1015.6 |
| 20260905140603 | 88 | 90 | 15.0 | 17.0 | 0.00 | 0.00 | 0.00 | 6 | 1015.6 |
| 20260905140546 | 88 | 90 | 15.0 | 17.0 | 0.00 | 0.00 | 0.00 | 6 | 1015.7 |
| 20260905140120 | 89 | 112 | 10.0 | 15.0 | 0.00 | 0.00 | 0.00 | 6 | 1015.5 |
| 20260905135656 | 89 | 112 | 10.0 | 19.0 | 0.00 | 0.00 | 0.00 | 6 | 1015.6 |
| 20260905135522 | 89 | 112 | 10.0 | 19.0 | 0.00 | 0.00 | 0.00 | 6 | 1015.6 |
| 20260905135026 | 88 | 112 | 12.0 | 17.0 | 0.00 | 0.00 | 0.00 | 6 | 1015.7 |
| 20260905134738 | 89 | 67 | 12.0 | 15.0 | 0.00 | 0.00 | 0.00 | 6 | 1015.6 |
| 20260905134608 | 89 | 67 | 12.0 | 15.0 | 0.00 | 0.00 | 0.00 | 6 | 1015.6 |
| 20260905134124 | 89 | 67 | 9.0 | 13.0 | 0.00 | 0.00 | 0.00 | 6 | 1015.7 |
| 20260905133739 | 88 | 112 | 12.0 | 17.0 | 0.00 | 0.00 | 0.00 | 6 | 1015.8 |
| 20260905133707 | 88 | 112 | 12.0 | 17.0 | 0.00 | 0.00 | 0.00 | 6 | 1015.8 |
| 20260905133242 | 88 | 112 | 11.0 | 17.0 | 0.00 | 0.00 | 0.00 | 6 | 1015.8 |
| 20260905132747 | 88 | 90 | 13.0 | 17.0 | 0.00 | 0.00 | 0.00 | 6 | 1016.0 |
| 20260905132306 | 88 | 90 | 13.0 | 20.0 | 0.00 | 0.00 | 0.00 | 6 | 1016.1 |
| 20260905132259 | 88 | 112 | 10.0 | 15.0 | 0.00 | 0.00 | 0.00 | 6 | 1016.0 |
| 20260905131844 | 88 | 112 | 10.0 | 15.0 | 0.00 | 0.00 | 0.00 | 6 | 1016.0 |
| 20260905131430 | 87 | 112 | 11.0 | 17.0 | 0.00 | 0.00 | 0.00 | 6 | 1016.0 |
| 20260905131000 | 88 | 90 | 10.0 | 15.0 | 0.00 | 0.00 | 0.00 | 6 | 1016.1 |
| 20260905130541 | 87 | 135 | 12.0 | 17.0 | 0.00 | 0.00 | 0.00 | 6 | 1016.1 |
| 20260905130115 | 87 | 112 | 14.0 | 19.0 | 0.00 | 0.00 | 0.00 | 6 | 1016.1 |
| 20260905125650 | 87 | 112 | 13.0 | 19.0 | 0.00 | 0.00 | 0.00 | 6 | 1016.0 |
| 20260905125306 | 87 | 67 | 12.0 | 15.0 | 0.00 | 0.00 | 0.00 | 6 | 1016.2 |
| 20260905125300 | 87 | 90 | 14.0 | 18.0 | 0.00 | 0.00 | 0.00 | 6 | 1016.1 |
| 20260905124839 | 88 | 67 | 9.0 | 13.0 | 0.00 | 0.00 | 0.00 | 6 | 1016.2 |
| 20260905124425 | 88 | 90 | 9.0 | 13.0 | 0.00 | 0.00 | 0.00 | 6 | 1016.1 |
| 20260905123956 | 87 | 90 | 11.0 | 17.0 | 0.00 | 0.00 | 0.00 | 6 | 1016.2 |
| 20260905123553 | 87 | 90 | 10.0 | 13.0 | 0.00 | 0.00 | 0.00 | 7 | 1016.1 |
| 20260905123536 | 87 | 90 | 10.0 | 13.0 | 0.00 | 0.00 | 0.00 | 7 | 1016.3 |
| 20260905123110 | 87 | 90 | 12.0 | 15.0 | 0.00 | 0.00 | 0.00 | 7 | 1016.2 |
| 20260905122646 | 87 | 90 | 10.0 | 15.0 | 0.00 | 0.00 | 0.00 | 7 | 1016.2 |
| 20260905122520 | 87 | 90 | 10.0 | 15.0 | 0.00 | 0.00 | 0.00 | 7 | 1016.2 |
| 20260905122411 | 87 | 90 | 9.0 | 15.0 | 0.00 | 0.00 | 0.00 | 7 | 1016.2 |
| 20260905121952 | 87 | 112 | 9.0 | 15.0 | 0.00 | 0.00 | 0.00 | 7 | 1016.2 |
| 20260905121607 | 87 | 67 | 10.0 | 15.0 | 0.00 | 0.00 | 0.00 | 7 | 1016.3 |
| 20260905121533 | 87 | 67 | 10.0 | 15.0 | 0.00 | 0.00 | 0.00 | 7 | 1016.3 |
| 20260905121049 | 88 | 90 | 8.0 | 13.0 | 0.00 | 0.00 | 0.00 | 6 | 1016.3 |
| 20260905120706 | 88 | 90 | 8.0 | 11.0 | 0.00 | 0.00 | 0.00 | 6 | 1016.3 |
| 20260905120632 | 88 | 90 | 8.0 | 11.0 | 0.00 | 0.00 | 0.00 | 6 | 1016.4 |
| 20260905120207 | 88 | 67 | 8.0 | 12.0 | 0.00 | 0.00 | 0.00 | 6 | 1016.4 |
| 20260905115717 | 87 | 67 | 10.0 | 15.0 | 0.00 | 0.00 | 0.00 | 6 | 1016.6 |
| 20260905115712 | 87 | 67 | 10.0 | 15.0 | 0.00 | 0.00 | 0.00 | 6 | 1016.6 |
| 20260905115522 | 87 | 67 | 10.0 | 15.0 | 0.00 | 0.00 | 0.00 | 6 | 1016.5 |
| 20260905115105 | 87 | 90 | 10.0 | 13.0 | 0.00 | 0.00 | 0.00 | 6 | 1016.5 |
| 20260905114735 | 87 | 112 | 9.0 | 15.0 | 0.00 | 0.00 | 0.00 | 6 | 1016.5 |
| 20260905114618 | 87 | 112 | 9.0 | 15.0 | 0.00 | 0.00 | 0.00 | 6 | 1016.5 |
| 20260905114139 | 87 | 112 | 9.0 | 15.0 | 0.00 | 0.00 | 0.00 | 6 | 1016.5 |
| 20260905113709 | 87 | 45 | 12.0 | 17.0 | 0.00 | 0.00 | 0.00 | 6 | 1016.5 |
| 20260905113237 | 86 | 112 | 12.0 | 19.0 | 0.00 | 0.00 | 0.00 | 6 | 1016.6 |
| 20260905112743 | 87 | 90 | 9.0 | 15.0 | 0.00 | 0.00 | 0.00 | 6 | 1016.5 |
| 20260905112741 | 87 | 90 | 9.0 | 15.0 | 0.00 | 0.00 | 0.00 | 6 | 1016.5 |
| 20260905112242 | 86 | 90 | 12.0 | 15.0 | 0.00 | 0.00 | 0.00 | 6 | 1016.6 |
| 20260905111836 | 86 | 112 | 9.0 | 15.0 | 0.00 | 0.00 | 0.00 | 7 | 1016.6 |
| 20260905111413 | 86 | 135 | 12.0 | 20.0 | 0.00 | 0.00 | 0.00 | 6 | 1016.4 |
| 20260905110953 | 86 | 67 | 11.0 | 15.0 | 0.00 | 0.00 | 0.00 | 7 | 1016.5 |
| 20260905110904 | 86 | 67 | 11.0 | 15.0 | 0.00 | 0.00 | 0.00 | 7 | 1016.5 |
| 20260905110524 | 87 | 112 | 9.0 | 15.0 | 0.00 | 0.00 | 0.00 | 7 | 1016.5 |
| 20260905110124 | 87 | 112 | 9.0 | 13.0 | 0.00 | 0.00 | 0.00 | 7 | 1016.6 |
| 20260905110045 | 87 | 90 | 10.0 | 15.0 | 0.00 | 0.00 | 0.00 | 7 | 1016.6 |
| 20260905105628 | 87 | 90 | 11.0 | 15.0 | 0.00 | 0.00 | 0.00 | 7 | 1016.6 |
| 20260905105223 | 87 | 135 | 10.0 | 15.0 | 0.00 | 0.00 | 0.00 | 6 | 1016.6 |
| 20260905104810 | 87 | 90 | 8.0 | 12.0 | 0.00 | 0.00 | 0.00 | 7 | 1016.7 |
| 20260905104410 | 87 | 90 | 10.0 | 13.0 | 0.00 | 0.00 | 0.00 | 7 | 1016.7 |
| 20260905104235 | 87 | 112 | 8.0 | 15.0 | 0.00 | 0.00 | 0.00 | 7 | 1016.8 |
| 20260905103939 | 86 | 90 | 10.0 | 13.0 | 0.00 | 0.00 | 0.00 | 7 | 1016.8 |
| 20260905103513 | 0 | 0 | 0.0 | 0.0 | 0.00 | 0.00 | 0.00 | 100 | |
| 20260905103306 | 0 | 0 | 0.0 | 0.0 | 0.00 | 0.00 | 0.00 | 100 | |
| 20260905103026 | 0 | 0 | 0.0 | 0.0 | 0.00 | 0.00 | 0.00 | 100 | |
| 20260905102559 | 0 | 0 | 0.0 | 0.0 | 0.00 | 0.00 | 0.00 | 100 | |
| 20260905102430 | 0 | 0 | 0.0 | 0.0 | 0.00 | 0.00 | 0.00 | 100 | |
| 20260905102140 | 0 | 0 | 0.0 | 0.0 | 0.00 | 0.00 | 0.00 | 100 | |
| 20260905101658 | 0 | 0 | 0.0 | 0.0 | 0.00 | 0.00 | 0.00 | 100 | |
| 20260905101515 | 87 | 67 | 7.0 | 10.0 | 0.00 | 0.00 | 0.00 | 6 | 1016.8 |
| 20260905101213 | 87 | 67 | 7.0 | 10.0 | 0.00 | 0.00 | 0.00 | 6 | 1016.8 |
| 20260905100753 | 87 | 67 | 7.0 | 10.0 | 0.00 | 0.00 | 0.00 | 6 | 1016.8 |
| 20260905100554 | 87 | 67 | 7.0 | 10.0 | 0.00 | 0.00 | 0.00 | 6 | 1016.7 |
| 20260905100313 | 0 | 0 | 0.0 | 0.0 | 0.00 | 0.00 | 0.00 | 100 | |
| 20260905095853 | 0 | 0 | 0.0 | 0.0 | 0.00 | 0.00 | 0.00 | 100 | |
| 20260905095658 | 0 | 0 | 0.0 | 0.0 | 0.00 | 0.00 | 0.00 | 100 | |
| 20260905095427 | 0 | 0 | 0.0 | 0.0 | 0.00 | 0.00 | 0.00 | 100 | |
| 20260905095024 | 90 | 315 | 1.0 | 2.0 | 0.00 | 0.00 | 0.00 | 5 | 1016.7 |
| 20260905094724 | 90 | 315 | 1.0 | 2.0 | 0.00 | 0.00 | 0.00 | 5 | 1016.7 |
| 20260905094620 | 90 | 315 | 1.0 | 2.0 | 0.00 | 0.00 | 0.00 | 5 | 1016.5 |
| 20260905094140 | 90 | 315 | 1.0 | 2.0 | 0.00 | 0.00 | 0.00 | 5 | 1016.6 |
| 20260905093726 | 88 | 337 | 0.0 | 2.0 | 0.00 | 0.00 | 0.00 | 5 | 1016.5 |
| 20260905093653 | 88 | 337 | 0.0 | 2.0 | 0.00 | 0.00 | 0.00 | 5 | 1016.4 |
| 20260905093227 | 88 | 337 | 0.0 | 2.0 | 0.00 | 0.00 | 0.00 | 5 | 1016.4 |
| 20260905092733 | 87 | 292 | 3.0 | 4.0 | 0.00 | 0.00 | 0.00 | 6 | 1016.6 |
| 20260905092308 | 87 | 315 | 0.0 | 1.0 | 0.00 | 0.00 | 0.00 | 6 | 1016.6 |
| 20260905091950 | 86 | 315 | 1.0 | 2.0 | 0.00 | 0.00 | 0.00 | 6 | 1016.6 |
| 20260905091846 | 86 | 315 | 2.0 | 3.0 | 0.00 | 0.00 | 0.00 | 6 | 1016.6 |
| 20260905091421 | 86 | 292 | 1.0 | 3.0 | 0.00 | 0.00 | 0.00 | 6 | 1016.6 |
| 20260905091053 | 86 | 0 | 0.0 | 2.0 | 0.00 | 0.00 | 0.00 | 6 | 1016.7 |
| 20260905091009 | 86 | 292 | 1.0 | 3.0 | 0.00 | 0.00 | 0.00 | 6 | 1016.5 |
| 20260905090601 | 86 | 0 | 2.0 | 3.0 | 0.00 | 0.00 | 0.00 | 6 | 1016.4 |
| 20260905090110 | 85 | 0 | 2.0 | 3.0 | 0.00 | 0.00 | 0.00 | 6 | 1016.5 |
| 20260905085929 | 85 | 315 | 3.0 | 3.0 | 0.00 | 0.00 | 0.00 | 6 | 1016.6 |
| 20260905085450 | 84 | 315 | 3.0 | 4.0 | 0.00 | 0.00 | 0.00 | 6 | 1016.4 |
| 20260905085245 | 84 | 292 | 5.0 | 6.0 | 0.00 | 0.00 | 0.00 | 6 | 1016.4 |
| 20260905085007 | 85 | 315 | 4.0 | 6.0 | 0.00 | 0.00 | 0.00 | 6 | 1016.5 |
| 20260905084517 | 84 | 315 | 5.0 | 6.0 | 0.00 | 0.00 | 0.00 | 6 | 1016.5 |
| 20260905084350 | 84 | 337 | 3.0 | 6.0 | 0.00 | 0.00 | 0.00 | 6 | 1016.4 |
| 20260905084059 | 84 | 315 | 4.0 | 6.0 | 0.00 | 0.00 | 0.00 | 6 | 1016.5 |
| 20260905083559 | 84 | 22 | 2.0 | 3.0 | 0.00 | 0.00 | 0.00 | 6 | 1016.4 |
| 20260905083524 | 83 | 337 | 3.0 | 6.0 | 0.00 | 0.00 | 0.00 | 6 | 1016.5 |
| 20260905083109 | 84 | 0 | 3.0 | 4.0 | 0.00 | 0.00 | 0.00 | 7 | 1016.3 |
| 20260905082658 | 83 | 22 | 3.0 | 4.0 | 0.00 | 0.00 | 0.00 | 7 | 1016.4 |
| 20260905082516 | 83 | 22 | 3.0 | 4.0 | 0.00 | 0.00 | 0.00 | 7 | 1016.4 |
| 20260905082318 | 82 | 315 | 5.0 | 6.0 | 0.00 | 0.00 | 0.00 | 7 | 1016.1 |
| 20260905081828 | 82 | 315 | 5.0 | 6.0 | 0.00 | 0.00 | 0.00 | 7 | 1016.2 |
| 20260905081531 | 82 | 292 | 4.0 | 6.0 | 0.00 | 0.00 | 0.00 | 7 | 1016.2 |
| 20260905081417 | 82 | 315 | 6.0 | 6.0 | 0.00 | 0.00 | 0.00 | 7 | 1016.2 |
| 20260905081012 | 82 | 315 | 4.0 | 6.0 | 0.00 | 0.00 | 0.00 | 7 | 1016.2 |
| 20260905080641 | 81 | 337 | 7.0 | 9.0 | 0.00 | 0.00 | 0.00 | 7 | 1016.2 |
| 20260905080609 | 81 | 337 | 7.0 | 9.0 | 0.00 | 0.00 | 0.00 | 7 | 1016.2 |
| 20260905080139 | 80 | 315 | 7.0 | 9.0 | 0.00 | 0.00 | 0.00 | 7 | 1016.0 |
| 20260905075650 | 80 | 315 | 6.0 | 9.0 | 0.00 | 0.00 | 0.00 | 7 | 1015.9 |
| 20260905075349 | 80 | 315 | 7.0 | 10.0 | 0.00 | 0.00 | 0.00 | 7 | 1016.0 |
| 20260905074927 | 80 | 337 | 6.0 | 8.0 | 0.00 | 0.00 | 0.00 | 7 | 1015.9 |
| 20260905074504 | 80 | 292 | 4.0 | 6.0 | 0.00 | 0.00 | 0.00 | 7 | 1015.9 |
| 20260905074039 | 79 | 292 | 5.0 | 6.0 | 0.00 | 0.00 | 0.00 | 7 | 1015.9 |
| 20260905073559 | 79 | 292 | 4.0 | 6.0 | 0.00 | 0.00 | 0.00 | 8 | 1015.8 |
| 20260905073114 | 79 | 315 | 4.0 | 6.0 | 0.00 | 0.00 | 0.00 | 8 | 1015.8 |
| 20260905072649 | 78 | 292 | 3.0 | 3.0 | 0.00 | 0.00 | 0.00 | 8 | 1015.9 |
| 20260905072314 | 78 | 292 | 3.0 | 3.0 | 0.00 | 0.00 | 0.00 | 8 | 1015.9 |
| 20260905071830 | 77 | 292 | 2.0 | 3.0 | 0.00 | 0.00 | 0.00 | 8 | 1015.9 |
| 20260905071446 | 77 | 292 | 2.0 | 3.0 | 0.00 | 0.00 | 0.00 | 8 | 1016.0 |
| 20260905071404 | 77 | 292 | 2.0 | 3.0 | 0.00 | 0.00 | 0.00 | 8 | 1016.0 |
| 20260905071000 | 77 | 292 | 1.0 | 2.0 | 0.00 | 0.00 | 0.00 | 8 | 1015.8 |
| 20260905070614 | 76 | 270 | 2.0 | 2.0 | 0.00 | 0.00 | 0.00 | 8 | 1016.0 |
| 20260905070540 | 76 | 270 | 1.0 | 2.0 | 0.00 | 0.00 | 0.00 | 8 | 1015.8 |
| 20260905070115 | 75 | 315 | 2.0 | 3.0 | 0.00 | 0.00 | 0.00 | 8 | 1015.8 |
| 20260905065620 | 75 | 292 | 3.0 | 3.0 | 0.00 | 0.00 | 0.00 | 8 | 1015.9 |
| 20260905065504 | 75 | 292 | 3.0 | 3.0 | 0.00 | 0.00 | 0.00 | 8 | 1015.9 |
| 20260905065041 | 74 | 270 | 3.0 | 3.0 | 0.00 | 0.00 | 0.00 | 8 | 1016.0 |
| 20260905064735 | 73 | 270 | 3.0 | 4.0 | 0.00 | 0.00 | 0.00 | 8 | 1016.0 |
| 20260905064553 | 73 | 270 | 3.0 | 3.0 | 0.00 | 0.00 | 0.00 | 8 | 1016.0 |
| 20260905064122 | 73 | 270 | 3.0 | 3.0 | 0.00 | 0.00 | 0.00 | 8 | 1016.0 |
| 20260905063736 | 73 | 270 | 1.0 | 2.0 | 0.00 | 0.00 | 0.00 | 8 | 1016.2 |
| 20260905063704 | 73 | 270 | 1.0 | 2.0 | 0.00 | 0.00 | 0.00 | 8 | 1016.2 |
| 20260905063239 | 73 | 270 | 1.0 | 2.0 | 0.00 | 0.00 | 0.00 | 8 | 1016.1 |
| 20260905062744 | 73 | 270 | 2.0 | 3.0 | 0.00 | 0.00 | 0.00 | 8 | 1016.2 |
| 20260905062359 | 72 | 270 | 2.0 | 2.0 | 0.00 | 0.00 | 0.00 | 8 | 1016.1 |
| 20260905061904 | 72 | 270 | 3.0 | 3.0 | 0.00 | 0.00 | 0.00 | 9 | 1016.0 |
| 20260905061515 | 72 | 270 | 2.0 | 2.0 | 0.00 | 0.00 | 0.00 | 9 | 1016.0 |
| 20260905061430 | 72 | 270 | 1.0 | 2.0 | 0.00 | 0.00 | 0.00 | 9 | 1016.0 |
| 20260905061029 | 72 | 292 | 2.0 | 2.0 | 0.00 | 0.00 | 0.00 | 9 | 1016.0 |
| 20260905060645 | 71 | 292 | 2.0 | 3.0 | 0.00 | 0.00 | 0.00 | 9 | 1016.0 |
| 20260905060609 | 71 | 292 | 2.0 | 3.0 | 0.00 | 0.00 | 0.00 | 9 | 1016.0 |
| 20260905060144 | 71 | 270 | 1.0 | 2.0 | 0.00 | 0.00 | 0.00 | 9 | 1015.9 |
| 20260905055649 | 71 | 292 | 0.0 | 1.0 | 0.00 | 0.00 | 0.00 | 9 | 1015.9 |
| 20260905055419 | 71 | 292 | 0.0 | 1.0 | 0.00 | 0.00 | 0.00 | 9 | 1015.9 |
| 20260905055004 | 71 | 270 | 2.0 | 3.0 | 0.00 | 0.00 | 0.00 | 9 | 1015.9 |
| 20260905054508 | 71 | 270 | 3.0 | 3.0 | 0.00 | 0.00 | 0.00 | 9 | 1015.9 |
| 20260905054041 | 71 | 292 | 2.0 | 3.0 | 0.00 | 0.00 | 0.00 | 9 | 1015.9 |
| 20260905053603 | 71 | 292 | 3.0 | 3.0 | 0.00 | 0.00 | 0.00 | 9 | 1015.8 |
| 20260905053118 | 71 | 270 | 2.0 | 2.0 | 0.00 | 0.00 | 0.00 | 9 | 1015.7 |
| 20260905052654 | 71 | 292 | 1.0 | 2.0 | 0.00 | 0.00 | 0.00 | 9 | 1015.6 |
| 20260905052424 | 71 | 270 | 2.0 | 2.0 | 0.00 | 0.00 | 0.00 | 9 | 1015.7 |
| 20260905051927 | 71 | 270 | 3.0 | 4.0 | 0.00 | 0.00 | 0.00 | 8 | 1015.6 |
| 20260905051510 | 72 | 270 | 2.0 | 3.0 | 0.00 | 0.00 | 0.00 | 8 | 1015.8 |
| 20260905051025 | 71 | 270 | 2.0 | 3.0 | 0.00 | 0.00 | 0.00 | 8 | 1015.6 |
| 20260905050609 | 71 | 270 | 3.0 | 4.0 | 0.00 | 0.00 | 0.00 | 8 | 1015.7 |
| 20260905050144 | 72 | 270 | 4.0 | 6.0 | 0.00 | 0.00 | 0.00 | 8 | 1015.8 |
| 20260905045649 | 71 | 247 | 3.0 | 4.0 | 0.00 | 0.00 | 0.00 | 8 | 1015.7 |
| 20260905045428 | 71 | 247 | 3.0 | 4.0 | 0.00 | 0.00 | 0.00 | 8 | 1015.8 |
| 20260905045307 | 71 | 270 | 3.0 | 4.0 | 0.00 | 0.00 | 0.00 | 8 | 1015.7 |
| 20260905045012 | 72 | 292 | 3.0 | 4.0 | 0.00 | 0.00 | 0.00 | 8 | 1015.7 |
| 20260905044529 | 72 | 270 | 3.0 | 4.0 | 0.00 | 0.00 | 0.00 | 8 | 1015.7 |
| 20260905044409 | 72 | 270 | 3.0 | 4.0 | 0.00 | 0.00 | 0.00 | 8 | 1015.8 |
| 20260905044109 | 72 | 292 | 3.0 | 4.0 | 0.00 | 0.00 | 0.00 | 8 | 1015.7 |
| 20260905043609 | 71 | 270 | 3.0 | 4.0 | 0.00 | 0.00 | 0.00 | 9 | 1015.9 |
| 20260905043537 | 71 | 270 | 3.0 | 4.0 | 0.00 | 0.00 | 0.00 | 9 | 1015.7 |
| 20260905043119 | 71 | 270 | 3.0 | 3.0 | 0.00 | 0.00 | 0.00 | 8 | 1015.7 |
| 20260905042708 | 71 | 292 | 2.0 | 3.0 | 0.00 | 0.00 | 0.00 | 9 | 1015.7 |
| 20260905042351 | 71 | 292 | 3.0 | 3.0 | 0.00 | 0.00 | 0.00 | 9 | 1015.7 |
| 20260905042319 | 71 | 292 | 3.0 | 3.0 | 0.00 | 0.00 | 0.00 | 9 | 1015.7 |
| 20260905041849 | 72 | 270 | 3.0 | 4.0 | 0.00 | 0.00 | 0.00 | 9 | 1015.6 |
| 20260905041440 | 72 | 270 | 4.0 | 4.0 | 0.00 | 0.00 | 0.00 | 9 | 1015.5 |
| 20260905041353 | 72 | 270 | 3.0 | 4.0 | 0.00 | 0.00 | 0.00 | 9 | 1015.6 |
| 20260905041006 | 72 | 270 | 3.0 | 3.0 | 0.00 | 0.00 | 0.00 | 9 | 1015.4 |
| 20260905040523 | 72 | 270 | 3.0 | 3.0 | 0.00 | 0.00 | 0.00 | 9 | 1015.5 |
| 20260905040104 | 72 | 270 | 3.0 | 3.0 | 0.00 | 0.00 | 0.00 | 9 | 1015.4 |
| 20260905035654 | 71 | 292 | 3.0 | 3.0 | 0.00 | 0.00 | 0.00 | 9 | 1015.5 |
| 20260905035430 | 71 | 292 | 3.0 | 3.0 | 0.00 | 0.00 | 0.00 | 9 | 1015.6 |
| 20260905035000 | 72 | 270 | 2.0 | 3.0 | 0.00 | 0.00 | 0.00 | 9 | 1015.6 |
| 20260905034542 | 71 | 270 | 2.0 | 2.0 | 0.00 | 0.00 | 0.00 | 9 | 1015.5 |
| 20260905034048 | 71 | 270 | 2.0 | 2.0 | 0.00 | 0.00 | 0.00 | 9 | 1015.5 |
| 20260905033558 | 71 | 292 | 2.0 | 2.0 | 0.00 | 0.00 | 0.00 | 9 | 1015.5 |
| 20260905033110 | 72 | 270 | 2.0 | 2.0 | 0.00 | 0.00 | 0.00 | 9 | 1015.5 |
| 20260905032659 | 72 | 270 | 2.0 | 2.0 | 0.00 | 0.00 | 0.00 | 9 | 1015.4 |
| 20260905032319 | 72 | 292 | 2.0 | 3.0 | 0.00 | 0.00 | 0.00 | 9 | 1015.5 |
| 20260905031855 | 72 | 292 | 0.0 | 1.0 | 0.00 | 0.00 | 0.00 | 9 | 1015.5 |
| 20260905031419 | 72 | 292 | 0.0 | 1.0 | 0.00 | 0.00 | 0.00 | 9 | 1015.5 |
| 20260905031000 | 71 | 292 | 0.0 | 1.0 | 0.00 | 0.00 | 0.00 | 9 | 1015.4 |
| 20260905030505 | 72 | 292 | 1.0 | 2.0 | 0.00 | 0.00 | 0.00 | 9 | 1015.3 |
| 20260905030039 | 72 | 315 | 2.0 | 3.0 | 0.00 | 0.00 | 0.00 | 8 | 1015.5 |
| 20260905025625 | 72 | 315 | 2.0 | 3.0 | 0.00 | 0.00 | 0.00 | 8 | 1015.4 |
| 20260905025501 | 72 | 315 | 2.0 | 3.0 | 0.00 | 0.00 | 0.00 | 8 | 1015.4 |
| 20260905025343 | 73 | 247 | 0.0 | 1.0 | 0.00 | 0.00 | 0.00 | 8 | 1015.5 |
| 20260905025048 | 73 | 0 | 0.0 | 2.0 | 0.00 | 0.00 | 0.00 | 9 | 1015.5 |
| 20260905024552 | 73 | 0 | 0.0 | 0.0 | 0.00 | 0.00 | 0.00 | 9 | 1015.5 |
| 20260905024520 | 73 | 0 | 0.0 | 0.0 | 0.00 | 0.00 | 0.00 | 9 | 1015.6 |
| 20260905024125 | 72 | 0 | 0.0 | 1.0 | 0.00 | 0.00 | 0.00 | 9 | 1015.4 |
| 20260905023647 | 72 | 0 | 0.0 | 0.0 | 0.00 | 0.00 | 0.00 | 9 | 1015.4 |
| 20260905023629 | 72 | 0 | 0.0 | 0.0 | 0.00 | 0.00 | 0.00 | 9 | 1015.4 |
| 20260905023203 | 73 | 0 | 0.0 | 0.0 | 0.00 | 0.00 | 0.00 | 8 | 1015.4 |
| 20260905022738 | 73 | 270 | 0.0 | 1.0 | 0.00 | 0.00 | 0.00 | 8 | 1015.4 |
| 20260905022417 | 73 | 270 | 1.0 | 2.0 | 0.00 | 0.00 | 0.00 | 8 | 1015.3 |
| 20260905022217 | 73 | 292 | 1.0 | 2.0 | 0.00 | 0.00 | 0.00 | 8 | 1015.3 |
| 20260905021925 | 73 | 292 | 2.0 | 2.0 | 0.00 | 0.00 | 0.00 | 8 | 1015.3 |
| 20260905021432 | 73 | 315 | 1.0 | 2.0 | 0.00 | 0.00 | 0.00 | 8 | 1015.3 |
| 20260905021325 | 73 | 315 | 1.0 | 2.0 | 0.00 | 0.00 | 0.00 | 8 | 1015.4 |
| 20260905021000 | 73 | 315 | 1.0 | 2.0 | 0.00 | 0.00 | 0.00 | 8 | 1015.4 |
| 20260905020455 | 74 | 292 | 1.0 | 2.0 | 0.00 | 0.00 | 0.00 | 8 | 1015.3 |
| 20260905020039 | 74 | 292 | 3.0 | 4.0 | 0.00 | 0.00 | 0.00 | 8 | 1015.3 |
| 20260905015632 | 75 | 292 | 2.0 | 2.0 | 0.00 | 0.00 | 0.00 | 8 | 1015.3 |
| 20260905015630 | 75 | 292 | 2.0 | 2.0 | 0.00 | 0.00 | 0.00 | 8 | 1015.3 |
| 20260905015415 | 75 | 270 | 2.0 | 3.0 | 0.00 | 0.00 | 0.00 | 8 | 1015.3 |
| 20260905014922 | 75 | 270 | 3.0 | 4.0 | 0.00 | 0.00 | 0.00 | 8 | 1015.2 |
| 20260905014510 | 74 | 247 | 3.0 | 4.0 | 0.00 | 0.00 | 0.00 | 8 | 1015.3 |
| 20260905014050 | 74 | 270 | 3.0 | 3.0 | 0.00 | 0.00 | 0.00 | 8 | 1015.1 |
| 20260905013647 | 75 | 292 | 3.0 | 3.0 | 0.00 | 0.00 | 0.00 | 8 | 1015.2 |
| 20260905013205 | 75 | 270 | 2.0 | 3.0 | 0.00 | 0.00 | 0.00 | 8 | 1015.0 |
| 20260905012740 | 75 | 292 | 2.0 | 3.0 | 0.00 | 0.00 | 0.00 | 8 | 1015.0 |
| 20260905012434 | 75 | 292 | 2.0 | 3.0 | 0.00 | 0.00 | 0.00 | 8 | 1014.9 |
| 20260905012255 | 75 | 292 | 3.0 | 3.0 | 0.00 | 0.00 | 0.00 | 8 | 1015.0 |
| 20260905011949 | 74 | 292 | 3.0 | 3.0 | 0.00 | 0.00 | 0.00 | 8 | 1014.9 |
| 20260905011459 | 73 | 292 | 3.0 | 4.0 | 0.00 | 0.00 | 0.00 | 8 | 1015.0 |
| 20260905011350 | 73 | 292 | 3.0 | 4.0 | 0.00 | 0.00 | 0.00 | 8 | 1015.0 |
| 20260905011026 | 73 | 270 | 3.0 | 4.0 | 0.00 | 0.00 | 0.00 | 8 | 1015.1 |
| 20260905010515 | 74 | 270 | 3.0 | 3.0 | 0.00 | 0.00 | 0.00 | 9 | 1015.2 |
| 20260905010103 | 74 | 270 | 3.0 | 3.0 | 0.00 | 0.00 | 0.00 | 9 | 1015.2 |
| 20260905005654 | 74 | 270 | 3.0 | 3.0 | 0.00 | 0.00 | 0.00 | 9 | 1015.2 |
| 20260905005143 | 75 | 292 | 3.0 | 3.0 | 0.00 | 0.00 | 0.00 | 9 | 1015.3 |
| 20260905004710 | 74 | 292 | 3.0 | 3.0 | 0.00 | 0.00 | 0.00 | 9 | 1015.3 |
| 20260905004652 | 74 | 292 | 3.0 | 3.0 | 0.00 | 0.00 | 0.00 | 9 | 1015.2 |
| 20260905004222 | 75 | 292 | 3.0 | 3.0 | 0.00 | 0.00 | 0.00 | 9 | 1015.3 |
| 20260905003838 | 75 | 292 | 3.0 | 4.0 | 0.00 | 0.00 | 0.00 | 8 | 1015.3 |
| 20260905003804 | 75 | 292 | 3.0 | 4.0 | 0.00 | 0.00 | 0.00 | 8 | 1015.3 |
| 20260905003339 | 75 | 270 | 3.0 | 3.0 | 0.00 | 0.00 | 0.00 | 8 | 1015.3 |
| 20260905002844 | 74 | 292 | 3.0 | 3.0 | 0.00 | 0.00 | 0.00 | 8 | 1015.3 |
| 20260905002457 | 74 | 292 | 3.0 | 3.0 | 0.00 | 0.00 | 0.00 | 8 | 1015.3 |
| 20260905002326 | 74 | 292 | 3.0 | 3.0 | 0.00 | 0.00 | 0.00 | 8 | 1015.2 |
| 20260905001907 | 74 | 270 | 2.0 | 3.0 | 0.00 | 0.00 | 0.00 | 8 | 1015.2 |
| 20260905001547 | 74 | 270 | 2.0 | 2.0 | 0.00 | 0.00 | 0.00 | 8 | 1015.4 |
| 20260905001447 | 75 | 270 | 1.0 | 2.0 | 0.00 | 0.00 | 0.00 | 8 | 1015.4 |
| 20260905001003 | 75 | 270 | 1.0 | 2.0 | 0.00 | 0.00 | 0.00 | 8 | 1015.3 |
| 20260905000623 | 75 | 292 | 1.0 | 2.0 | 0.00 | 0.00 | 0.00 | 8 | 1015.4 |
| 20260905000546 | 75 | 292 | 1.0 | 2.0 | 0.00 | 0.00 | 0.00 | 8 | 1015.3 |
| 20260905000121 | 76 | 270 | 1.0 | 2.0 | 0.00 | 0.00 | 0.00 | 8 | 1015.4 |
| 20260904235626 | 76 | 270 | 2.0 | 2.0 | 0.00 | 0.00 | 0.00 | 8 | 1015.4 |
| 20260904235354 | 76 | 292 | 2.0 | 2.0 | 0.00 | 0.00 | 0.00 | 8 | 1015.4 |
| 20260904234904 | 76 | 270 | 3.0 | 4.0 | 0.00 | 0.00 | 0.00 | 9 | 1015.5 |
| 20260904234456 | 76 | 292 | 2.0 | 3.0 | 0.00 | 0.00 | 0.00 | 9 | 1015.6 |
| 20260904234039 | 76 | 292 | 2.0 | 3.0 | 0.00 | 0.00 | 0.00 | 9 | 1015.5 |
| 20260904233544 | 76 | 292 | 2.0 | 3.0 | 0.00 | 0.00 | 0.00 | 9 | 1015.6 |
| 20260904233117 | 76 | 292 | 3.0 | 4.0 | 0.00 | 0.00 | 0.00 | 9 | 1015.4 |
| 20260904232709 | 76 | 292 | 3.0 | 3.0 | 0.00 | 0.00 | 0.00 | 8 | 1015.5 |
| 20260904232428 | 76 | 292 | 3.0 | 3.0 | 0.00 | 0.00 | 0.00 | 8 | 1015.5 |
| 20260904232402 | 76 | 292 | 3.0 | 3.0 | 0.00 | 0.00 | 0.00 | 8 | 1015.4 |
| 20260904231946 | 77 | 292 | 3.0 | 4.0 | 0.00 | 0.00 | 0.00 | 8 | 1015.5 |
| 20260904231514 | 77 | 292 | 3.0 | 4.0 | 0.00 | 0.00 | 0.00 | 8 | 1015.4 |
| 20260904231456 | 77 | 292 | 3.0 | 4.0 | 0.00 | 0.00 | 0.00 | 8 | 1015.4 |
| 20260904231025 | 77 | 270 | 3.0 | 3.0 | 0.00 | 0.00 | 0.00 | 8 | 1015.4 |
| 20260904230642 | 77 | 292 | 3.0 | 3.0 | 0.00 | 0.00 | 0.00 | 8 | 1015.3 |
| 20260904230608 | 77 | 292 | 3.0 | 3.0 | 0.00 | 0.00 | 0.00 | 8 | 1015.3 |
| 20260904230143 | 77 | 292 | 2.0 | 3.0 | 0.00 | 0.00 | 0.00 | 8 | 1015.4 |
| 20260904225649 | 77 | 292 | 2.0 | 2.0 | 0.00 | 0.00 | 0.00 | 8 | 1015.2 |
| 20260904225513 | 77 | 292 | 2.0 | 2.0 | 0.00 | 0.00 | 0.00 | 8 | 1015.2 |
| 20260904225450 | 77 | 292 | 2.0 | 3.0 | 0.00 | 0.00 | 0.00 | 8 | 1015.3 |
| 20260904225028 | 78 | 292 | 3.0 | 4.0 | 0.00 | 0.00 | 0.00 | 8 | 1015.3 |
| 20260904224516 | 78 | 292 | 2.0 | 3.0 | 0.00 | 0.00 | 0.00 | 8 | 1015.3 |
| 20260904224108 | 78 | 270 | 3.0 | 4.0 | 0.00 | 0.00 | 0.00 | 8 | 1015.2 |
| 20260904223614 | 78 | 270 | 3.0 | 6.0 | 0.00 | 0.00 | 0.00 | 8 | 1015.2 |
| 20260904223554 | 78 | 270 | 3.0 | 4.0 | 0.00 | 0.00 | 0.00 | 8 | 1015.3 |
| 20260904223148 | 78 | 292 | 4.0 | 6.0 | 0.00 | 0.00 | 0.00 | 8 | 1015.2 |
| 20260904222737 | 78 | 292 | 4.0 | 6.0 | 0.00 | 0.00 | 0.00 | 8 | 1015.2 |
| 20260904222631 | 78 | 292 | 4.0 | 6.0 | 0.00 | 0.00 | 0.00 | 8 | 1015.2 |
| 20260904222403 | 77 | 270 | 3.0 | 6.0 | 0.00 | 0.00 | 0.00 | 8 | 1015.2 |
| 20260904221945 | 77 | 247 | 3.0 | 4.0 | 0.00 | 0.00 | 0.00 | 8 | 1015.2 |
| 20260904221656 | 78 | 315 | 2.0 | 3.0 | 0.00 | 0.00 | 0.00 | 8 | 1015.2 |
| 20260904221526 | 78 | 315 | 2.0 | 3.0 | 0.00 | 0.00 | 0.00 | 8 | 1015.3 |
| 20260904221042 | 78 | 315 | 2.0 | 3.0 | 0.00 | 0.00 | 0.00 | 8 | 1015.3 |
| 20260904220745 | 78 | 292 | 2.0 | 3.0 | 0.00 | 0.00 | 0.00 | 8 | 1015.2 |
| 20260904220656 | 78 | 292 | 2.0 | 3.0 | 0.00 | 0.00 | 0.00 | 8 | 1015.2 |
| 20260904220624 | 78 | 292 | 2.0 | 3.0 | 0.00 | 0.00 | 0.00 | 8 | 1015.2 |
| 20260904220159 | 78 | 292 | 3.0 | 4.0 | 0.00 | 0.00 | 0.00 | 8 | 1015.3 |
| 20260904215705 | 78 | 292 | 2.0 | 3.0 | 0.00 | 0.00 | 0.00 | 8 | 1015.2 |
| 20260904215524 | 78 | 315 | 2.0 | 3.0 | 0.00 | 0.00 | 0.00 | 8 | 1015.2 |
| 20260904215043 | 78 | 292 | 2.0 | 3.0 | 0.00 | 0.00 | 0.00 | 8 | 1015.1 |
| 20260904214735 | 78 | 292 | 3.0 | 3.0 | 0.00 | 0.00 | 0.00 | 8 | 1015.3 |
| 20260904214553 | 78 | 292 | 3.0 | 4.0 | 0.00 | 0.00 | 0.00 | 8 | 1015.2 |
| 20260904214122 | 79 | 315 | 3.0 | 4.0 | 0.00 | 0.00 | 0.00 | 8 | 1015.1 |
| 20260904213737 | 78 | 270 | 3.0 | 4.0 | 0.00 | 0.00 | 0.00 | 8 | 1015.2 |
| 20260904213704 | 78 | 270 | 3.0 | 4.0 | 0.00 | 0.00 | 0.00 | 8 | 1015.2 |
| 20260904213239 | 78 | 292 | 3.0 | 4.0 | 0.00 | 0.00 | 0.00 | 8 | 1015.1 |
| 20260904212745 | 78 | 292 | 3.0 | 4.0 | 0.00 | 0.00 | 0.00 | 8 | 1015.1 |
| 20260904212437 | 78 | 315 | 3.0 | 4.0 | 0.00 | 0.00 | 0.00 | 8 | 1015.2 |
| 20260904212314 | 78 | 292 | 3.0 | 4.0 | 0.00 | 0.00 | 0.00 | 8 | 1015.2 |
| 20260904211948 | 78 | 292 | 3.0 | 4.0 | 0.00 | 0.00 | 0.00 | 8 | 1015.2 |
| 20260904211429 | 78 | 292 | 3.0 | 4.0 | 0.00 | 0.00 | 0.00 | 8 | 1015.1 |
| 20260904211035 | 78 | 292 | 3.0 | 4.0 | 0.00 | 0.00 | 0.00 | 8 | 1015.2 |
| 20260904210540 | 79 | 292 | 3.0 | 4.0 | 0.00 | 0.00 | 0.00 | 8 | 1015.2 |
| 20260904210113 | 79 | 292 | 2.0 | 3.0 | 0.00 | 0.00 | 0.00 | 8 | 1015.1 |
| 20260904205648 | 79 | 292 | 2.0 | 3.0 | 0.00 | 0.00 | 0.00 | 8 | 1015.1 |
| 20260904205448 | 79 | 292 | 2.0 | 3.0 | 0.00 | 0.00 | 0.00 | 8 | 1015.0 |
| 20260904205326 | 79 | 292 | 2.0 | 3.0 | 0.00 | 0.00 | 0.00 | 8 | 1015.0 |
| 20260904204915 | 80 | 315 | 3.0 | 3.0 | 0.00 | 0.00 | 0.00 | 7 | 1015.1 |
| 20260904204507 | 80 | 292 | 3.0 | 3.0 | 0.00 | 0.00 | 0.00 | 7 | 1015.2 |
| 20260904204449 | 80 | 292 | 3.0 | 3.0 | 0.00 | 0.00 | 0.00 | 7 | 1015.0 |
| 20260904204103 | 80 | 292 | 3.0 | 4.0 | 0.00 | 0.00 | 0.00 | 7 | 1015.0 |
| 20260904203649 | 80 | 292 | 2.0 | 2.0 | 0.00 | 0.00 | 0.00 | 7 | 1015.0 |
| 20260904203615 | 80 | 292 | 2.0 | 2.0 | 0.00 | 0.00 | 0.00 | 7 | 1015.0 |
| 20260904203200 | 80 | 292 | 2.0 | 2.0 | 0.00 | 0.00 | 0.00 | 7 | 1015.0 |
| 20260904202746 | 80 | 315 | 3.0 | 3.0 | 0.00 | 0.00 | 0.00 | 7 | 1014.8 |
| 20260904202306 | 81 | 315 | 3.0 | 6.0 | 0.00 | 0.00 | 0.00 | 7 | 1014.7 |
| 20260904202253 | 81 | 315 | 3.0 | 6.0 | 0.00 | 0.00 | 0.00 | 7 | 1014.7 |
| 20260904201831 | 81 | 315 | 3.0 | 4.0 | 0.00 | 0.00 | 0.00 | 7 | 1014.8 |
| 20260904201420 | 81 | 270 | 4.0 | 4.0 | 0.00 | 0.00 | 0.00 | 7 | 1014.7 |
| 20260904201356 | 81 | 270 | 4.0 | 6.0 | 0.00 | 0.00 | 0.00 | 7 | 1014.6 |
| 20260904200950 | 81 | 292 | 3.0 | 6.0 | 0.00 | 0.00 | 0.00 | 7 | 1014.7 |
| 20260904200523 | 81 | 270 | 3.0 | 4.0 | 0.00 | 0.00 | 0.00 | 7 | 1014.6 |
| 20260904200111 | 81 | 292 | 2.0 | 3.0 | 0.00 | 0.00 | 0.00 | 7 | 1014.7 |
| 20260904195704 | 81 | 292 | 3.0 | 4.0 | 0.00 | 0.00 | 0.00 | 7 | 1014.6 |
| 20260904195701 | 81 | 292 | 3.0 | 4.0 | 0.00 | 0.00 | 0.00 | 7 | 1014.6 |
| 20260904195542 | 81 | 315 | 3.0 | 4.0 | 0.00 | 0.00 | 0.00 | 7 | 1014.7 |
| 20260904195347 | 81 | 292 | 3.0 | 4.0 | 0.00 | 0.00 | 0.00 | 7 | 1014.6 |
| 20260904194944 | 81 | 337 | 4.0 | 6.0 | 0.00 | 0.00 | 0.00 | 7 | 1014.5 |
| 20260904194647 | 81 | 315 | 5.0 | 6.0 | 0.00 | 0.00 | 0.00 | 7 | 1014.5 |
| 20260904194543 | 81 | 315 | 3.0 | 4.0 | 0.00 | 0.00 | 0.00 | 7 | 1014.4 |
| 20260904194103 | 81 | 292 | 5.0 | 6.0 | 0.00 | 0.00 | 0.00 | 7 | 1014.5 |
| 20260904193647 | 81 | 292 | 4.0 | 6.0 | 0.00 | 0.00 | 0.00 | 8 | 1014.4 |
| 20260904193615 | 81 | 315 | 5.0 | 6.0 | 0.00 | 0.00 | 0.00 | 8 | 1014.3 |
| 20260904193150 | 81 | 315 | 3.0 | 4.0 | 0.00 | 0.00 | 0.00 | 8 | 1014.2 |
| 20260904192656 | 82 | 315 | 2.0 | 3.0 | 0.00 | 0.00 | 0.00 | 8 | 1014.2 |
| 20260904192409 | 82 | 315 | 3.0 | 4.0 | 0.00 | 0.00 | 0.00 | 8 | 1014.1 |
| 20260904191951 | 82 | 315 | 1.0 | 2.0 | 0.00 | 0.00 | 0.00 | 8 | 1014.0 |
| 20260904191502 | 82 | 315 | 3.0 | 4.0 | 0.00 | 0.00 | 0.00 | 8 | 1014.1 |
| 20260904191023 | 82 | 292 | 3.0 | 4.0 | 0.00 | 0.00 | 0.00 | 8 | 1013.7 |
| 20260904190554 | 83 | 292 | 3.0 | 6.0 | 0.00 | 0.00 | 0.00 | 8 | 1013.8 |
| 20260904190121 | 83 | 292 | 3.0 | 4.0 | 0.00 | 0.00 | 0.00 | 8 | 1013.9 |
| 20260904185625 | 83 | 315 | 1.0 | 2.0 | 0.00 | 0.00 | 0.00 | 8 | 1013.7 |
| 20260904185445 | 83 | 315 | 1.0 | 2.0 | 0.00 | 0.00 | 0.00 | 8 | 1013.7 |
| 20260904184953 | 83 | 0 | 0.0 | 0.0 | 0.00 | 0.00 | 0.00 | 8 | 1013.6 |
| 20260904184524 | 83 | 292 | 3.0 | 4.0 | 0.00 | 0.00 | 0.00 | 8 | 1013.7 |
| 20260904184122 | 83 | 292 | 2.0 | 3.0 | 0.00 | 0.00 | 0.00 | 8 | 1013.6 |
| 20260904183701 | 82 | 337 | 1.0 | 2.0 | 0.00 | 0.00 | 0.00 | 8 | 1013.4 |
| 20260904183237 | 83 | 67 | 3.0 | 4.0 | 0.00 | 0.00 | 0.00 | 8 | 1013.4 |
| 20260904182742 | 83 | 67 | 0.0 | 2.0 | 0.00 | 0.00 | 0.00 | 8 | 1013.3 |
| 20260904182437 | 84 | 67 | 2.0 | 3.0 | 0.00 | 0.00 | 0.00 | 8 | 1013.4 |
| 20260904181955 | 84 | 67 | 1.0 | 2.0 | 0.00 | 0.00 | 0.00 | 8 | 1013.3 |
| 20260904181508 | 85 | 67 | 1.0 | 2.0 | 0.00 | 0.00 | 0.00 | 7 | 1013.3 |
| 20260904181035 | 85 | 67 | 3.0 | 6.0 | 0.00 | 0.00 | 0.00 | 7 | 1013.3 |
| 20260904180618 | 86 | 90 | 4.0 | 6.0 | 0.00 | 0.00 | 0.00 | 7 | 1013.1 |
| 20260904180153 | 86 | 112 | 6.0 | 10.0 | 0.00 | 0.00 | 0.00 | 7 | 1013.1 |
| 20260904175658 | 87 | 67 | 7.0 | 9.0 | 0.00 | 0.00 | 0.00 | 7 | 1013.0 |
| 20260904175532 | 87 | 67 | 7.0 | 9.0 | 0.00 | 0.00 | 0.00 | 7 | 1013.0 |
| 20260904175442 | 87 | 112 | 6.0 | 9.0 | 0.00 | 0.00 | 0.00 | 6 | 1012.9 |
| 20260904175030 | 87 | 112 | 6.0 | 9.0 | 0.00 | 0.00 | 0.00 | 6 | 1013.0 |
| 20260904174606 | 87 | 112 | 6.0 | 9.0 | 0.00 | 0.00 | 0.00 | 6 | 1012.8 |
| 20260904174133 | 87 | 112 | 6.0 | 9.0 | 0.00 | 0.00 | 0.00 | 6 | 1012.8 |
| 20260904173645 | 87 | 90 | 6.0 | 8.0 | 0.00 | 0.00 | 0.00 | 7 | 1012.9 |
| 20260904173157 | 88 | 90 | 6.0 | 8.0 | 0.00 | 0.00 | 0.00 | 7 | 1012.9 |
| 20260904172747 | 89 | 112 | 7.0 | 10.0 | 0.00 | 0.00 | 0.00 | 6 | 1013.0 |
| 20260904172450 | 89 | 112 | 7.0 | 10.0 | 0.00 | 0.00 | 0.00 | 6 | 1012.8 |
| 20260904172352 | 89 | 67 | 7.0 | 10.0 | 0.00 | 0.00 | 0.00 | 6 | 1012.9 |
| 20260904171948 | 90 | 90 | 6.0 | 8.0 | 0.00 | 0.00 | 0.00 | 5 | 1012.8 |
| 20260904171544 | 90 | 135 | 5.0 | 6.0 | 0.00 | 0.00 | 0.00 | 5 | 1012.9 |
| 20260904171504 | 91 | 90 | 5.0 | 8.0 | 0.00 | 0.00 | 0.00 | 5 | 1012.9 |
| 20260904171105 | 91 | 90 | 6.0 | 11.0 | 0.00 | 0.00 | 0.00 | 5 | 1012.9 |
| 20260904170617 | 91 | 135 | 4.0 | 6.0 | 0.00 | 0.00 | 0.00 | 5 | 1012.9 |
| 20260904170149 | 91 | 112 | 7.0 | 10.0 | 0.00 | 0.00 | 0.00 | 5 | 1012.8 |
| 20260904165658 | 92 | 90 | 6.0 | 9.0 | 0.00 | 0.00 | 0.00 | 5 | 1012.6 |
| 20260904165445 | 92 | 112 | 5.0 | 9.0 | 0.00 | 0.00 | 0.00 | 5 | 1012.6 |
| 20260904165043 | 92 | 67 | 5.0 | 6.0 | 0.00 | 0.00 | 0.00 | 5 | 1012.8 |
| 20260904164608 | 92 | 112 | 5.0 | 6.0 | 0.00 | 0.00 | 0.00 | 5 | 1012.8 |
| 20260904164547 | 92 | 67 | 6.0 | 9.0 | 0.00 | 0.00 | 0.00 | 5 | 1012.7 |
| 20260904164152 | 92 | 90 | 5.0 | 6.0 | 0.00 | 0.00 | 0.00 | 5 | 1012.7 |
| 20260904163714 | 92 | 67 | 4.0 | 8.0 | 0.00 | 0.00 | 0.00 | 5 | 1012.7 |
| 20260904163303 | 92 | 67 | 7.0 | 10.0 | 0.00 | 0.00 | 0.00 | 5 | 1012.7 |
| 20260904162853 | 92 | 67 | 8.0 | 11.0 | 0.00 | 0.00 | 0.00 | 5 | 1012.7 |
| 20260904162447 | 92 | 90 | 8.0 | 10.0 | 0.00 | 0.00 | 0.00 | 5 | 1012.7 |
| 20260904162300 | 92 | 90 | 7.0 | 11.0 | 0.00 | 0.00 | 0.00 | 5 | 1012.7 |
| 20260904162001 | 92 | 67 | 6.0 | 9.0 | 0.00 | 0.00 | 0.00 | 5 | 1012.8 |
| 20260904161541 | 92 | 67 | 7.0 | 10.0 | 0.00 | 0.00 | 0.00 | 5 | 1012.9 |
| 20260904161502 | 92 | 67 | 7.0 | 10.0 | 0.00 | 0.00 | 0.00 | 5 | 1012.8 |
| 20260904161107 | 92 | 135 | 9.0 | 12.0 | 0.00 | 0.00 | 0.00 | 5 | 1012.8 |
| 20260904160624 | 92 | 135 | 9.0 | 12.0 | 0.00 | 0.00 | 0.00 | 5 | 1012.8 |
| 20260904160150 | 92 | 112 | 9.0 | 13.0 | 0.00 | 0.00 | 0.00 | 4 | 1012.8 |
| 20260904155658 | 92 | 112 | 9.0 | 13.0 | 0.00 | 0.00 | 0.00 | 4 | 1012.6 |
| 20260904155656 | 92 | 112 | 9.0 | 13.0 | 0.00 | 0.00 | 0.00 | 4 | 1012.6 |
| 20260904155432 | 92 | 112 | 9.0 | 13.0 | 0.00 | 0.00 | 0.00 | 4 | 1012.7 |
| 20260904155306 | 93 | 67 | 6.0 | 10.0 | 0.00 | 0.00 | 0.00 | 4 | 1012.7 |
| 20260904154936 | 92 | 90 | 9.0 | 12.0 | 0.00 | 0.00 | 0.00 | 5 | 1012.8 |
| 20260904154518 | 93 | 112 | 6.0 | 11.0 | 0.00 | 0.00 | 0.00 | 5 | 1012.7 |
| 20260904154432 | 92 | 112 | 9.0 | 13.0 | 0.00 | 0.00 | 0.00 | 5 | 1012.6 |
| 20260904154034 | 92 | 90 | 10.0 | 15.0 | 0.00 | 0.00 | 0.00 | 5 | 1012.6 |
| 20260904153520 | 92 | 90 | 8.0 | 13.0 | 0.00 | 0.00 | 0.00 | 5 | 1012.6 |
| 20260904153109 | 92 | 112 | 8.0 | 13.0 | 0.00 | 0.00 | 0.00 | 5 | 1012.6 |
| 20260904152702 | 92 | 45 | 9.0 | 13.0 | 0.00 | 0.00 | 0.00 | 5 | 1012.6 |
| 20260904152700 | 92 | 45 | 9.0 | 13.0 | 0.00 | 0.00 | 0.00 | 5 | 1012.6 |
| 20260904152455 | 92 | 45 | 9.0 | 13.0 | 0.00 | 0.00 | 0.00 | 5 | 1012.5 |
| 20260904152352 | 92 | 45 | 9.0 | 13.0 | 0.00 | 0.00 | 0.00 | 5 | 1012.6 |
| 20260904151940 | 92 | 90 | 8.0 | 11.0 | 0.00 | 0.00 | 0.00 | 5 | 1012.5 |
| 20260904151540 | 92 | 112 | 9.0 | 15.0 | 0.00 | 0.00 | 0.00 | 5 | 1012.5 |
| 20260904151100 | 92 | 112 | 10.0 | 15.0 | 0.00 | 0.00 | 0.00 | 5 | 1012.6 |
| 20260904150645 | 91 | 112 | 9.0 | 15.0 | 0.00 | 0.00 | 0.00 | 5 | 1012.5 |
| 20260904150614 | 91 | 112 | 9.0 | 15.0 | 0.00 | 0.00 | 0.00 | 5 | 1012.5 |
| 20260904150145 | 91 | 90 | 9.0 | 15.0 | 0.00 | 0.00 | 0.00 | 5 | 1012.5 |
| 20260904145654 | 91 | 67 | 12.0 | 18.0 | 0.00 | 0.00 | 0.00 | 5 | 1012.7 |
| 20260904145343 | 92 | 112 | 12.0 | 15.0 | 0.00 | 0.00 | 0.00 | 5 | 1012.5 |
| 20260904145301 | 92 | 67 | 9.0 | 15.0 | 0.00 | 0.00 | 0.00 | 5 | 1012.8 |
| 20260904144909 | 91 | 90 | 9.0 | 12.0 | 0.00 | 0.00 | 0.00 | 5 | 1012.8 |
| 20260904144411 | 91 | 67 | 10.0 | 13.0 | 0.00 | 0.00 | 0.00 | 5 | 1012.6 |
| 20260904143949 | 91 | 112 | 9.0 | 18.0 | 0.00 | 0.00 | 0.00 | 5 | 1012.7 |
| 20260904143759 | 91 | 135 | 11.0 | 15.0 | 0.00 | 0.00 | 0.00 | 5 | 1012.9 |
| 20260904143519 | 91 | 135 | 11.0 | 15.0 | 0.00 | 0.00 | 0.00 | 5 | 1012.9 |
| 20260904143107 | 91 | 135 | 9.0 | 13.0 | 0.00 | 0.00 | 0.00 | 5 | 1012.7 |
| 20260904142659 | 91 | 112 | 12.0 | 15.0 | 0.00 | 0.00 | 0.00 | 5 | 1013.0 |
| 20260904142543 | 91 | 112 | 12.0 | 15.0 | 0.00 | 0.00 | 0.00 | 5 | 1013.0 |
| 20260904142244 | 91 | 67 | 12.0 | 15.0 | 0.00 | 0.00 | 0.00 | 5 | 1012.8 |
| 20260904142140 | 91 | 67 | 12.0 | 15.0 | 0.00 | 0.00 | 0.00 | 5 | 1012.8 |
| 20260904141740 | 91 | 90 | 10.0 | 15.0 | 0.00 | 0.00 | 0.00 | 5 | 1012.9 |
| 20260904141335 | 91 | 112 | 12.0 | 17.0 | 0.00 | 0.00 | 0.00 | 6 | 1012.9 |